Time;durP1;ratioP1;P1;durP2;ratioP2;P2;SDS_P1;SDS_P2;PMS_P1;PMS_P2;Temp;Humidity;BMP_temperature;BMP_pressure;BME280_temperature;BME280_humidity;BME280_pressure;Samples;Min_cycle;Max_cycle;Signal;HPM_P1;HPM_P2
2023/12/18 00:00:05;;;;;;;24.42;18.70;;;;;;;;;;5017373;28;20053;-60
2023/12/18 00:02:31;;;;;;;25.58;21.00;;;;;;;;;;5016711;28;20063;-60
2023/12/18 00:04:56;;;;;;;26.77;19.10;;;;;;;;;;5016484;28;20445;-59
2023/12/18 00:07:22;;;;;;;23.70;18.27;;;;;;;;;;5018192;28;20037;-60
2023/12/18 00:09:48;;;;;;;21.08;18.65;;;;;;;;;;5016019;28;20045;-60
2023/12/18 00:12:13;;;;;;;21.48;17.67;;;;;;;;;;5018144;28;20497;-60
2023/12/18 00:14:39;;;;;;;22.55;17.70;;;;;;;;;;5019562;28;20060;-59
2023/12/18 00:17:04;;;;;;;22.05;18.15;;;;;;;;;;5019842;28;20084;-59
2023/12/18 00:19:30;;;;;;;25.67;18.95;;;;;;;;;;5016720;28;20038;-58
2023/12/18 00:21:55;;;;;;;23.35;16.92;;;;;;;;;;5016650;28;20065;-60
2023/12/18 00:24:21;;;;;;;15.07;13.52;;;;;;;;;;5018070;28;20065;-59
2023/12/18 00:26:47;;;;;;;24.08;17.73;;;;;;;;;;5016356;28;20037;-60
2023/12/18 00:29:12;;;;;;;25.40;18.77;;;;;;;;;;5016694;28;20042;-58
2023/12/18 00:31:38;;;;;;;11.50;10.60;;;;;;;;;;5019813;28;20121;-60
2023/12/18 00:34:03;;;;;;;28.98;23.65;;;;;;;;;;5018238;28;20033;-61
2023/12/18 00:36:29;;;;;;;16.75;15.00;;;;;;;;;;5015480;28;20099;-58
2023/12/18 00:38:54;;;;;;;24.50;17.30;;;;;;;;;;5016380;28;20041;-59
2023/12/18 00:41:20;;;;;;;31.25;20.88;;;;;;;;;;5021003;28;20037;-59
2023/12/18 00:43:46;;;;;;;20.63;15.57;;;;;;;;;;5014532;28;20049;-58
2023/12/18 00:46:11;;;;;;;40.72;23.70;;;;;;;;;;5018085;28;20041;-60
2023/12/18 00:48:37;;;;;;;32.33;22.20;;;;;;;;;;5016833;28;20415;-58
2023/12/18 00:51:02;;;;;;;24.52;18.73;;;;;;;;;;5021126;28;20034;-58
2023/12/18 00:53:28;;;;;;;28.00;20.42;;;;;;;;;;5015431;28;20588;-59
2023/12/18 00:55:54;;;;;;;26.70;20.30;;;;;;;;;;5016478;28;20037;-60
2023/12/18 00:58:20;;;;;;;34.70;21.63;;;;;;;;;;5017525;28;20032;-59
2023/12/18 01:00:45;;;;;;;28.60;21.35;;;;;;;;;;5016414;28;20037;-60
2023/12/18 01:03:11;;;;;;;32.30;21.30;;;;;;;;;;5019561;28;20049;-59
2023/12/18 01:05:37;;;;;;;30.15;19.33;;;;;;;;;;5018953;28;20856;-57
2023/12/18 01:08:03;;;;;;;28.80;21.00;;;;;;;;;;5016111;28;20049;-56
2023/12/18 01:10:28;;;;;;;30.25;22.45;;;;;;;;;;5018531;28;20046;-61
2023/12/18 01:12:54;;;;;;;31.30;22.58;;;;;;;;;;5016288;28;20048;-59
2023/12/18 01:15:20;;;;;;;34.92;23.08;;;;;;;;;;5018202;28;20120;-59
2023/12/18 01:17:45;;;;;;;25.25;20.38;;;;;;;;;;5018927;28;20041;-60
2023/12/18 01:20:11;;;;;;;19.55;16.90;;;;;;;;;;5022661;28;20037;-57
2023/12/18 01:22:37;;;;;;;19.08;15.52;;;;;;;;;;5018646;28;20104;-60
2023/12/18 01:25:03;;;;;;;8.65;8.07;;;;;;;;;;5018829;28;20042;-59
2023/12/18 01:27:29;;;;;;;21.33;16.55;;;;;;;;;;5021797;28;20045;-59
2023/12/18 01:29:54;;;;;;;23.20;18.70;;;;;;;;;;5020053;28;20513;-57
2023/12/18 01:32:20;;;;;;;21.13;15.90;;;;;;;;;;5020869;28;20578;-59
2023/12/18 01:34:45;;;;;;;21.65;17.52;;;;;;;;;;5016875;28;20053;-57
2023/12/18 01:37:11;;;;;;;21.88;17.02;;;;;;;;;;5020695;28;20037;-60
2023/12/18 01:39:36;;;;;;;20.02;17.30;;;;;;;;;;5022576;28;20053;-61
2023/12/18 01:42:02;;;;;;;10.70;9.80;;;;;;;;;;5019147;28;20163;-61
2023/12/18 01:44:28;;;;;;;10.57;9.70;;;;;;;;;;5018404;28;20041;-60
2023/12/18 01:46:54;;;;;;;11.50;10.45;;;;;;;;;;5019690;28;20144;-60
2023/12/18 01:49:20;;;;;;;11.88;10.70;;;;;;;;;;5021397;28;20041;-59
2023/12/18 01:51:46;;;;;;;15.38;13.05;;;;;;;;;;5017330;28;20056;-59
2023/12/18 01:54:12;;;;;;;16.95;13.88;;;;;;;;;;5019502;28;20563;-60
2023/12/18 01:56:38;;;;;;;18.45;14.93;;;;;;;;;;5020771;28;20094;-60
2023/12/18 01:59:05;;;;;;;10.98;9.13;;;;;;;;;;5019212;28;20041;-57
2023/12/18 02:01:31;;;;;;;12.38;11.18;;;;;;;;;;5019700;28;20072;-60
2023/12/18 02:03:58;;;;;;;11.75;10.52;;;;;;;;;;5018285;28;20029;-59
2023/12/18 02:06:23;;;;;;;15.68;14.00;;;;;;;;;;5020694;28;20117;-60
2023/12/18 02:08:49;;;;;;;21.08;16.05;;;;;;;;;;5019348;28;20372;-60
2023/12/18 02:11:14;;;;;;;21.08;14.82;;;;;;;;;;5017053;28;20048;-58
2023/12/18 02:13:40;;;;;;;17.98;16.02;;;;;;;;;;5019297;28;20041;-60
2023/12/18 02:16:06;;;;;;;21.75;17.25;;;;;;;;;;5019698;28;20049;-60
2023/12/18 02:18:33;;;;;;;23.25;17.67;;;;;;;;;;5021015;28;20094;-60
2023/12/18 02:20:58;;;;;;;26.10;19.42;;;;;;;;;;5015786;28;20049;-60
2023/12/18 02:23:24;;;;;;;36.38;18.95;;;;;;;;;;5022528;28;20083;-60
2023/12/18 02:25:50;;;;;;;21.63;17.15;;;;;;;;;;5019774;28;20029;-60
2023/12/18 02:28:17;;;;;;;19.90;17.00;;;;;;;;;;5017843;28;20037;-60
2023/12/18 02:30:43;;;;;;;23.48;18.98;;;;;;;;;;5018973;28;20037;-60
2023/12/18 02:33:09;;;;;;;25.58;17.35;;;;;;;;;;5019965;28;20041;-60
2023/12/18 02:35:35;;;;;;;25.27;18.30;;;;;;;;;;5020372;28;20090;-60
2023/12/18 02:38:01;;;;;;;27.95;18.92;;;;;;;;;;5015283;28;20068;-59
2023/12/18 02:40:27;;;;;;;21.08;15.57;;;;;;;;;;5022436;28;20040;-60
2023/12/18 02:42:53;;;;;;;20.55;16.15;;;;;;;;;;5018296;28;20041;-60
2023/12/18 02:45:19;;;;;;;25.17;18.17;;;;;;;;;;5016315;28;20075;-60
2023/12/18 02:47:44;;;;;;;25.63;17.92;;;;;;;;;;5018378;28;20091;-60
2023/12/18 02:50:10;;;;;;;21.77;15.68;;;;;;;;;;5021763;28;20033;-60
2023/12/18 02:52:36;;;;;;;18.48;15.60;;;;;;;;;;5019687;28;20045;-60
2023/12/18 02:55:01;;;;;;;22.55;15.57;;;;;;;;;;5015350;28;20183;-59
2023/12/18 02:57:27;;;;;;;16.10;14.10;;;;;;;;;;5019806;28;20033;-58
2023/12/18 02:59:53;;;;;;;18.65;15.90;;;;;;;;;;5018646;28;20042;-59
2023/12/18 03:02:18;;;;;;;8.63;8.02;;;;;;;;;;5018696;28;20044;-60
2023/12/18 03:04:44;;;;;;;15.40;13.77;;;;;;;;;;5016106;28;20037;-59
2023/12/18 03:07:10;;;;;;;26.05;16.35;;;;;;;;;;5018850;28;20325;-58
2023/12/18 03:09:36;;;;;;;19.10;15.13;;;;;;;;;;5022213;28;20045;-59
2023/12/18 03:12:02;;;;;;;24.13;18.52;;;;;;;;;;5015759;28;20995;-60
2023/12/18 03:14:27;;;;;;;21.65;15.38;;;;;;;;;;5019561;28;20029;-57
2023/12/18 03:16:53;;;;;;;24.83;16.70;;;;;;;;;;5020028;28;20052;-59
2023/12/18 03:19:19;;;;;;;11.38;10.40;;;;;;;;;;5022057;28;20037;-58
2023/12/18 03:21:45;;;;;;;10.98;10.00;;;;;;;;;;5016837;28;20033;-60
2023/12/18 03:24:11;;;;;;;9.18;8.43;;;;;;;;;;5021830;28;20041;-59
2023/12/18 03:26:37;;;;;;;9.93;9.10;;;;;;;;;;5019392;28;20048;-59
2023/12/18 03:29:02;;;;;;;11.60;10.63;;;;;;;;;;5018048;28;20669;-58
2023/12/18 03:31:28;;;;;;;14.02;12.75;;;;;;;;;;5019032;28;20046;-58
2023/12/18 03:33:54;;;;;;;18.52;15.20;;;;;;;;;;5018510;28;20045;-58
2023/12/18 03:36:19;;;;;;;14.32;12.68;;;;;;;;;;5018333;28;20033;-59
2023/12/18 03:38:45;;;;;;;16.73;13.68;;;;;;;;;;5016805;28;20033;-60
2023/12/18 03:41:10;;;;;;;23.10;17.13;;;;;;;;;;5018111;28;20604;-59
2023/12/18 03:43:36;;;;;;;15.52;13.18;;;;;;;;;;5019024;28;20091;-59
2023/12/18 03:46:01;;;;;;;13.75;12.25;;;;;;;;;;5018479;28;20036;-58
2023/12/18 03:48:27;;;;;;;8.30;7.75;;;;;;;;;;5016934;28;20033;-58
2023/12/18 03:50:53;;;;;;;18.17;15.00;;;;;;;;;;5018268;28;20119;-59
2023/12/18 03:53:18;;;;;;;12.23;11.18;;;;;;;;;;5018264;28;20073;-59
2023/12/18 03:55:44;;;;;;;18.58;15.23;;;;;;;;;;5018791;28;20036;-57
2023/12/18 03:58:09;;;;;;;15.10;12.48;;;;;;;;;;5016161;28;20456;-59
2023/12/18 04:00:35;;;;;;;9.27;8.43;;;;;;;;;;5006881;28;20116;-58
2023/12/18 04:03:04;;;;;;;17.40;13.45;;;;;;;;;;5016595;28;20511;-59
2023/12/18 04:05:30;;;;;;;21.58;15.70;;;;;;;;;;5013798;28;20103;-60
2023/12/18 04:07:55;;;;;;;16.58;13.93;;;;;;;;;;5015944;28;20498;-58
2023/12/18 04:10:21;;;;;;;9.40;7.35;;;;;;;;;;5014820;28;20037;-59
2023/12/18 04:12:46;;;;;;;11.35;10.40;;;;;;;;;;5017032;28;20059;-60
2023/12/18 04:15:12;;;;;;;22.48;15.75;;;;;;;;;;5018918;28;20048;-59
2023/12/18 04:17:38;;;;;;;6.60;6.00;;;;;;;;;;5015378;28;20050;-59
2023/12/18 04:20:04;;;;;;;11.85;9.23;;;;;;;;;;5016228;28;20053;-60
2023/12/18 04:22:30;;;;;;;15.18;13.63;;;;;;;;;;5015774;28;20038;-59
2023/12/18 04:24:57;;;;;;;15.57;14.02;;;;;;;;;;5018177;28;20037;-59
2023/12/18 04:27:22;;;;;;;10.52;9.57;;;;;;;;;;5019181;28;20040;-59
2023/12/18 04:29:48;;;;;;;13.80;12.07;;;;;;;;;;5014179;28;20450;-60
2023/12/18 04:32:13;;;;;;;11.40;10.32;;;;;;;;;;5016877;28;20092;-60
2023/12/18 04:34:39;;;;;;;10.18;9.35;;;;;;;;;;5016735;28;20041;-59
2023/12/18 04:37:05;;;;;;;11.38;10.27;;;;;;;;;;5014813;28;20092;-58
2023/12/18 04:39:32;;;;;;;10.95;10.02;;;;;;;;;;5016101;28;20033;-58
2023/12/18 04:41:58;;;;;;;14.35;11.43;;;;;;;;;;5017916;28;20052;-59
2023/12/18 04:44:23;;;;;;;8.60;7.90;;;;;;;;;;5014138;28;20060;-57
2023/12/18 04:46:49;;;;;;;10.98;10.05;;;;;;;;;;5016778;28;20041;-60
2023/12/18 04:49:14;;;;;;;9.23;8.60;;;;;;;;;;5016607;28;20046;-58
2023/12/18 04:51:40;;;;;;;18.67;15.27;;;;;;;;;;5018099;28;20087;-59
2023/12/18 04:54:05;;;;;;;14.38;10.95;;;;;;;;;;5024532;28;20036;-59
2023/12/18 04:56:31;;;;;;;13.75;12.27;;;;;;;;;;5021681;28;20049;-58
2023/12/18 04:58:57;;;;;;;10.27;9.43;;;;;;;;;;5021557;28;20171;-59
2023/12/18 05:01:22;;;;;;;8.63;8.00;;;;;;;;;;5018934;28;20070;-57
2023/12/18 05:03:48;;;;;;;14.93;13.43;;;;;;;;;;5018454;28;20037;-59
2023/12/18 05:06:18;;;;;;;13.68;12.38;;;;;;;;;;5019838;28;20037;-59
2023/12/18 05:08:43;;;;;;;9.85;9.00;;;;;;;;;;5021248;28;20037;-59
2023/12/18 05:11:09;;;;;;;26.63;14.23;;;;;;;;;;5016793;28;20033;-58
2023/12/18 05:13:34;;;;;;;21.65;17.52;;;;;;;;;;5021257;28;20057;-58
2023/12/18 05:16:00;;;;;;;11.52;10.35;;;;;;;;;;5020604;28;20050;-59
2023/12/18 05:18:25;;;;;;;15.77;13.95;;;;;;;;;;5021278;28;20040;-59
2023/12/18 05:20:53;;;;;;;12.63;11.32;;;;;;;;;;5018979;28;20127;-60
2023/12/18 05:23:18;;;;;;;16.13;14.18;;;;;;;;;;5017385;28;20163;-59
2023/12/18 05:25:44;;;;;;;46.83;30.73;;;;;;;;;;5022660;28;20497;-58
2023/12/18 05:28:09;;;;;;;17.65;15.80;;;;;;;;;;5018869;28;20572;-60
2023/12/18 05:30:36;;;;;;;12.40;11.30;;;;;;;;;;5018559;28;20037;-59
2023/12/18 05:33:02;;;;;;;22.05;18.00;;;;;;;;;;5050528;28;20107;-60
2023/12/18 05:35:28;;;;;;;40.97;27.65;;;;;;;;;;5020522;28;20052;-58
2023/12/18 05:37:54;;;;;;;21.50;16.23;;;;;;;;;;5019478;28;20048;-59
2023/12/18 05:40:19;;;;;;;21.27;17.02;;;;;;;;;;5019507;28;20033;-59
2023/12/18 05:42:45;;;;;;;7.20;6.80;;;;;;;;;;5014547;28;20033;-57
2023/12/18 05:45:10;;;;;;;10.55;8.88;;;;;;;;;;5018304;28;20040;-59
2023/12/18 05:47:36;;;;;;;10.13;9.40;;;;;;;;;;5021070;28;20482;-60
2023/12/18 05:50:01;;;;;;;10.43;9.48;;;;;;;;;;5024389;28;20048;-59
2023/12/18 05:52:27;;;;;;;10.43;9.52;;;;;;;;;;5017003;28;20513;-59
2023/12/18 05:54:52;;;;;;;15.85;11.65;;;;;;;;;;5020343;28;20757;-60
2023/12/18 05:57:19;;;;;;;13.05;11.80;;;;;;;;;;5019605;28;20059;-59
2023/12/18 05:59:44;;;;;;;12.02;10.80;;;;;;;;;;5019076;28;20037;-58
2023/12/18 06:02:10;;;;;;;13.50;12.15;;;;;;;;;;5013248;28;20033;-60
2023/12/18 06:04:36;;;;;;;8.98;8.35;;;;;;;;;;5018327;28;20117;-59
2023/12/18 06:07:01;;;;;;;10.80;9.82;;;;;;;;;;5018930;28;20037;-59
2023/12/18 06:09:27;;;;;;;13.30;11.60;;;;;;;;;;5015040;28;20033;-59
2023/12/18 06:11:52;;;;;;;15.43;11.45;;;;;;;;;;5015723;28;20099;-60
2023/12/18 06:14:18;;;;;;;15.82;11.57;;;;;;;;;;5019218;28;20037;-59
2023/12/18 06:16:43;;;;;;;14.90;13.30;;;;;;;;;;5020416;28;20559;-59
2023/12/18 06:19:09;;;;;;;11.88;10.57;;;;;;;;;;5016048;28;20582;-57
2023/12/18 06:21:41;;;;;;;12.98;11.60;;;;;;;;;;5017462;28;20037;-59
2023/12/18 06:24:07;;;;;;;13.07;11.75;;;;;;;;;;5019450;28;20573;-58
2023/12/18 06:26:32;;;;;;;14.30;12.02;;;;;;;;;;5019854;28;20679;-58
2023/12/18 06:28:58;;;;;;;11.65;10.60;;;;;;;;;;5015408;28;20044;-59
2023/12/18 06:31:23;;;;;;;12.68;11.43;;;;;;;;;;5020267;28;20088;-59
2023/12/18 06:33:49;;;;;;;10.73;9.70;;;;;;;;;;5019971;28;20037;-59
2023/12/18 06:36:19;;;;;;;15.85;12.93;;;;;;;;;;5018551;28;20037;-59
2023/12/18 06:38:45;;;;;;;;;;;;;;;;;;5017875;28;20592;-60
2023/12/18 06:41:11;;;;;;;10.02;9.35;;;;;;;;;;5015820;28;20576;-59
2023/12/18 06:43:36;;;;;;;14.27;11.07;;;;;;;;;;5019316;28;20041;-59
2023/12/18 06:46:02;;;;;;;8.80;8.18;;;;;;;;;;5017267;28;20065;-59
2023/12/18 06:48:28;;;;;;;8.90;8.23;;;;;;;;;;5016874;28;20060;-59
2023/12/18 06:50:53;;;;;;;16.95;12.32;;;;;;;;;;5019278;28;20038;-59
2023/12/18 06:53:19;;;;;;;8.50;7.90;;;;;;;;;;5019569;28;20075;-59
2023/12/18 06:55:44;;;;;;;13.38;11.63;;;;;;;;;;5020855;28;20052;-58
2023/12/18 06:58:10;;;;;;;14.15;12.65;;;;;;;;;;5018403;28;20045;-58
2023/12/18 07:00:35;;;;;;;13.18;10.43;;;;;;;;;;5019574;28;20049;-59
2023/12/18 07:03:02;;;;;;;13.55;12.25;;;;;;;;;;5014188;28;20641;-58
2023/12/18 07:05:29;;;;;;;13.75;12.45;;;;;;;;;;5018757;28;20037;-59
2023/12/18 07:07:57;;;;;;;8.23;7.72;;;;;;;;;;5021229;28;20064;-59
2023/12/18 07:10:23;;;;;;;15.88;11.50;;;;;;;;;;5018663;28;20069;-59
2023/12/18 07:12:48;;;;;;;9.18;8.50;;;;;;;;;;5016744;28;20121;-60
2023/12/18 07:15:14;;;;;;;11.80;10.73;;;;;;;;;;5016634;28;20041;-60
2023/12/18 07:17:40;;;;;;;11.75;10.68;;;;;;;;;;5019896;28;20033;-60
2023/12/18 07:20:08;;;;;;;11.02;10.07;;;;;;;;;;5017374;28;20106;-59
2023/12/18 07:22:34;;;;;;;12.07;10.88;;;;;;;;;;5018422;28;20038;-60
2023/12/18 07:24:59;;;;;;;21.27;15.05;;;;;;;;;;5018461;28;20087;-59
2023/12/18 07:27:25;;;;;;;22.25;15.93;;;;;;;;;;5020333;28;20025;-59
2023/12/18 07:29:50;;;;;;;14.88;13.32;;;;;;;;;;5017762;28;20121;-60
2023/12/18 07:32:16;;;;;;;17.67;15.07;;;;;;;;;;5017752;28;20078;-60
2023/12/18 07:34:42;;;;;;;10.73;9.68;;;;;;;;;;5024063;28;20533;-60
2023/12/18 07:37:08;;;;;;;22.17;16.10;;;;;;;;;;5016876;28;20063;-60
2023/12/18 07:39:33;;;;;;;13.30;10.82;;;;;;;;;;5016590;28;20036;-60
2023/12/18 07:41:59;;;;;;;13.68;12.32;;;;;;;;;;5017704;28;20148;-59
2023/12/18 07:44:25;;;;;;;10.40;9.38;;;;;;;;;;5019096;28;20121;-60
2023/12/18 07:46:52;;;;;;;18.73;11.43;;;;;;;;;;5018858;28;20136;-60
2023/12/18 07:49:17;;;;;;;14.38;13.00;;;;;;;;;;5015409;28;20041;-59
2023/12/18 07:51:43;;;;;;;21.85;16.80;;;;;;;;;;5019714;28;20111;-58
2023/12/18 07:54:09;;;;;;;16.80;15.00;;;;;;;;;;5016798;28;20056;-59
2023/12/18 07:56:35;;;;;;;22.48;16.75;;;;;;;;;;5015891;28;20398;-58
2023/12/18 07:59:00;;;;;;;14.55;13.07;;;;;;;;;;5016702;28;20045;-60
2023/12/18 08:01:26;;;;;;;25.40;18.02;;;;;;;;;;5017977;28;20045;-60
2023/12/18 08:03:52;;;;;;;21.70;16.80;;;;;;;;;;5018754;28;20048;-60
2023/12/18 08:06:18;;;;;;;21.67;17.27;;;;;;;;;;5022903;28;20036;-60
2023/12/18 08:08:44;;;;;;;17.00;15.10;;;;;;;;;;5017703;28;20036;-60
2023/12/18 08:11:10;;;;;;;19.30;15.07;;;;;;;;;;5018002;28;20029;-60
2023/12/18 08:13:38;;;;;;;16.52;14.55;;;;;;;;;;5019437;28;20045;-59
2023/12/18 08:16:06;;;;;;;15.80;14.25;;;;;;;;;;5016112;28;20041;-60
2023/12/18 08:18:31;;;;;;;18.17;15.43;;;;;;;;;;5019276;28;20045;-60
2023/12/18 08:20:57;;;;;;;16.33;14.73;;;;;;;;;;5018378;28;20049;-60
2023/12/18 08:23:22;;;;;;;15.48;13.82;;;;;;;;;;5018356;28;20030;-62
2023/12/18 08:25:48;;;;;;;20.00;14.75;;;;;;;;;;5022772;28;20120;-60
2023/12/18 08:28:14;;;;;;;14.55;13.18;;;;;;;;;;5018879;28;20045;-59
2023/12/18 08:30:39;;;;;;;14.45;13.25;;;;;;;;;;5022258;28;20029;-60
2023/12/18 08:33:05;;;;;;;23.27;19.15;;;;;;;;;;5025771;28;20033;-60
2023/12/18 08:35:30;;;;;;;12.18;11.27;;;;;;;;;;5019007;28;20036;-61
2023/12/18 08:37:56;;;;;;;20.33;13.88;;;;;;;;;;5019207;28;20407;-61
2023/12/18 08:40:22;;;;;;;14.55;13.15;;;;;;;;;;5026928;28;20041;-61
2023/12/18 08:42:48;;;;;;;13.65;12.35;;;;;;;;;;5020466;28;20103;-63
2023/12/18 08:45:13;;;;;;;15.50;14.00;;;;;;;;;;5051146;28;20053;-62
2023/12/18 08:47:39;;;;;;;16.70;15.07;;;;;;;;;;5021789;28;20033;-62
2023/12/18 08:50:05;;;;;;;16.83;15.13;;;;;;;;;;5020003;28;20041;-60
2023/12/18 08:52:31;;;;;;;17.60;15.80;;;;;;;;;;5019992;28;20046;-62
2023/12/18 08:54:56;;;;;;;15.07;13.60;;;;;;;;;;5008910;28;20582;-64
2023/12/18 08:57:22;;;;;;;13.30;12.02;;;;;;;;;;5018837;28;20049;-62
2023/12/18 08:59:51;;;;;;;12.73;11.52;;;;;;;;;;5022076;28;20041;-63
2023/12/18 09:02:16;;;;;;;11.90;11.00;;;;;;;;;;5013935;28;20560;-63
2023/12/18 09:04:42;;;;;;;11.90;11.00;;;;;;;;;;5015605;28;20033;-63
2023/12/18 09:07:07;;;;;;;16.98;13.63;;;;;;;;;;5012725;28;20691;-62
2023/12/18 09:09:33;;;;;;;19.58;15.88;;;;;;;;;;5018540;28;20561;-62
2023/12/18 09:11:58;;;;;;;14.88;13.48;;;;;;;;;;5017506;28;20167;-63
2023/12/18 09:14:24;;;;;;;15.40;13.93;;;;;;;;;;5018269;28;20037;-62
2023/12/18 09:16:49;;;;;;;15.13;13.70;;;;;;;;;;5015892;28;20746;-62
2023/12/18 09:19:15;;;;;;;12.73;11.52;;;;;;;;;;5017198;28;20048;-60
2023/12/18 09:21:41;;;;;;;14.05;12.68;;;;;;;;;;5020266;28;20029;-62
2023/12/18 09:24:07;;;;;;;14.85;13.35;;;;;;;;;;5017231;28;20734;-63
2023/12/18 09:26:33;;;;;;;19.70;15.48;;;;;;;;;;5016320;28;21688;-62
2023/12/18 09:28:59;;;;;;;14.73;13.32;;;;;;;;;;5017450;28;20436;-61
2023/12/18 09:31:25;;;;;;;14.10;12.80;;;;;;;;;;5018920;28;20898;-61
2023/12/18 09:33:50;;;;;;;27.45;19.80;;;;;;;;;;5009518;28;20546;-63
2023/12/18 09:36:17;;;;;;;15.32;13.88;;;;;;;;;;5013268;28;20041;-62
2023/12/18 09:38:43;;;;;;;14.15;12.75;;;;;;;;;;5018681;28;20442;-62
2023/12/18 09:41:08;;;;;;;14.30;12.48;;;;;;;;;;5015065;28;20040;-62
2023/12/18 09:43:34;;;;;;;13.02;11.82;;;;;;;;;;5017875;28;20041;-62
2023/12/18 09:46:00;;;;;;;11.38;10.45;;;;;;;;;;5016540;28;20499;-61
2023/12/18 09:48:25;;;;;;;11.93;10.93;;;;;;;;;;5017433;28;20111;-61
2023/12/18 09:50:51;;;;;;;11.43;10.32;;;;;;;;;;5018589;28;20049;-61
2023/12/18 09:53:20;;;;;;;17.88;12.23;;;;;;;;;;5015383;28;21996;-61
2023/12/18 09:55:48;;;;;;;14.20;12.80;;;;;;;;;;5018022;28;20033;-61
2023/12/18 09:58:17;;;;;;;11.95;11.00;;;;;;;;;;5016286;28;20033;-63
2023/12/18 10:00:43;;;;;;;14.60;13.23;;;;;;;;;;5015428;28;20041;-62
2023/12/18 10:03:09;;;;;;;11.60;10.70;;;;;;;;;;5017625;28;20045;-62
2023/12/18 10:05:36;;;;;;;11.73;10.82;;;;;;;;;;5018191;28;20041;-62
2023/12/18 10:08:01;;;;;;;15.13;13.75;;;;;;;;;;5013983;28;20061;-59
2023/12/18 10:10:27;;;;;;;14.55;13.15;;;;;;;;;;5018599;28;20064;-63
2023/12/18 10:12:53;;;;;;;15.10;13.80;;;;;;;;;;5018434;28;20521;-60
2023/12/18 10:15:19;;;;;;;15.02;13.73;;;;;;;;;;5015628;28;20098;-63
2023/12/18 10:17:45;;;;;;;15.70;14.25;;;;;;;;;;5014373;28;20075;-62
2023/12/18 10:20:12;;;;;;;16.80;15.30;;;;;;;;;;5017919;28;20033;-62
2023/12/18 10:22:39;;;;;;;16.00;14.60;;;;;;;;;;5018417;28;20021;-61
2023/12/18 10:25:05;;;;;;;15.75;14.43;;;;;;;;;;5014584;28;20062;-60
2023/12/18 10:27:38;;;;;;;17.40;15.77;;;;;;;;;;5017661;28;20081;-63
2023/12/18 10:30:06;;;;;;;15.07;13.85;;;;;;;;;;5016430;28;20095;-62
2023/12/18 10:32:35;;;;;;;17.85;15.48;;;;;;;;;;5018474;28;20545;-63
2023/12/18 10:35:01;;;;;;;16.90;15.38;;;;;;;;;;5015143;28;20395;-61
2023/12/18 10:37:29;;;;;;;16.50;14.93;;;;;;;;;;5018414;28;20708;-60
2023/12/18 10:40:03;;;;;;;16.03;14.53;;;;;;;;;;5018461;28;20742;-64
2023/12/18 10:42:39;;;;;;;15.88;14.57;;;;;;;;;;5015558;28;20597;-62
2023/12/18 10:45:06;;;;;;;16.20;14.52;;;;;;;;;;5014963;28;20041;-63
2023/12/18 10:47:32;;;;;;;16.70;15.20;;;;;;;;;;5009757;28;20139;-62
2023/12/18 10:50:02;;;;;;;16.02;14.43;;;;;;;;;;5019753;28;20112;-62
2023/12/18 10:52:31;;;;;;;16.08;14.38;;;;;;;;;;5010183;28;20057;-62
2023/12/18 10:54:59;;;;;;;18.08;16.23;;;;;;;;;;5011412;28;20029;-61
2023/12/18 10:57:26;;;;;;;16.17;14.50;;;;;;;;;;5010230;28;20045;-60
2023/12/18 10:59:52;;;;;;;15.90;14.50;;;;;;;;;;5016984;28;20163;-62
2023/12/18 11:02:18;;;;;;;13.98;12.77;;;;;;;;;;5009348;28;20041;-62
2023/12/18 11:04:48;;;;;;;15.63;14.02;;;;;;;;;;5012045;28;20092;-59
2023/12/18 11:07:17;;;;;;;15.65;14.15;;;;;;;;;;5009108;28;20083;-62
2023/12/18 11:09:43;;;;;;;15.77;14.27;;;;;;;;;;5012774;28;20411;-62
2023/12/18 11:12:10;;;;;;;17.58;15.15;;;;;;;;;;5015201;28;20128;-61
2023/12/18 11:15:04;;;;;;;15.68;14.20;;;;;;;;;;5010759;28;20747;-60
2023/12/18 11:18:07;;;;;;;15.18;13.95;;;;;;;;;;5010290;28;20581;-60
2023/12/18 11:20:35;;;;;;;15.85;14.52;;;;;;;;;;5010885;28;20025;-60
2023/12/18 11:23:01;;;;;;;17.40;15.48;;;;;;;;;;5011756;28;20029;-62
2023/12/18 11:25:31;;;;;;;17.25;15.07;;;;;;;;;;5015883;28;20033;-61
2023/12/18 11:28:00;;;;;;;;;;;;;;;;;;5006543;28;20038;-58
2023/12/18 11:30:29;;;;;;;16.58;15.13;;;;;;;;;;5017635;28;19920;-62
2023/12/18 11:33:06;;;;;;;18.08;16.38;;;;;;;;;;5019380;28;20044;-61
2023/12/18 11:35:36;;;;;;;19.75;15.95;;;;;;;;;;5015947;28;20076;-60
2023/12/18 11:38:09;;;;;;;18.63;16.92;;;;;;;;;;5016151;28;20072;-59
2023/12/18 11:40:39;;;;;;;18.08;16.13;;;;;;;;;;5017473;28;20150;-60
2023/12/18 11:51:43;;;;;;;17.83;15.85;;;;;;;;;;5024253;28;20045;-60
2023/12/18 11:54:15;;;;;;;16.63;15.00;;;;;;;;;;5008967;28;20059;-62
2023/12/18 11:56:42;;;;;;;16.55;15.13;;;;;;;;;;5008726;28;20034;-61
2023/12/18 11:59:34;;;;;;;17.67;16.17;;;;;;;;;;5038054;27;20908;-60
2023/12/18 12:01:59;;;;;;;17.45;15.95;;;;;;;;;;5032641;28;20045;-61
2023/12/18 12:04:25;;;;;;;17.20;15.63;;;;;;;;;;5031557;28;20946;-62
2023/12/18 12:06:51;;;;;;;17.42;16.02;;;;;;;;;;5033304;28;20695;-60
2023/12/18 12:09:17;;;;;;;17.67;15.73;;;;;;;;;;5036750;28;20087;-60
2023/12/18 12:11:42;;;;;;;16.17;14.77;;;;;;;;;;5025510;28;20040;-61
2023/12/18 12:14:08;;;;;;;15.90;14.70;;;;;;;;;;5031009;28;20028;-60
2023/12/18 12:16:34;;;;;;;16.50;15.10;;;;;;;;;;5029056;28;20086;-61
2023/12/18 12:18:59;;;;;;;16.05;14.65;;;;;;;;;;5029442;28;20041;-64
2023/12/18 12:21:25;;;;;;;16.33;14.77;;;;;;;;;;5021683;28;20127;-61
2023/12/18 12:23:50;;;;;;;44.30;31.20;;;;;;;;;;5028667;28;20052;-60
2023/12/18 12:26:21;;;;;;;19.63;17.98;;;;;;;;;;5025394;28;20704;-60
2023/12/18 12:28:48;;;;;;;16.88;15.38;;;;;;;;;;5034218;28;20514;-61
2023/12/18 12:31:18;;;;;;;16.88;15.35;;;;;;;;;;5029790;28;20072;-61
2023/12/18 12:33:45;;;;;;;17.10;15.40;;;;;;;;;;5033462;28;20115;-60
2023/12/18 12:36:20;;;;;;;16.23;14.93;;;;;;;;;;5026853;28;20044;-60
2023/12/18 12:38:46;;;;;;;16.83;14.98;;;;;;;;;;5028510;28;20029;-59
2023/12/18 12:41:12;;;;;;;16.23;14.82;;;;;;;;;;5028026;28;20037;-60
2023/12/18 12:43:37;;;;;;;17.60;15.93;;;;;;;;;;5031463;28;20037;-60
2023/12/18 12:46:05;;;;;;;16.88;15.48;;;;;;;;;;5029335;28;20041;-59
2023/12/18 12:48:33;;;;;;;17.55;16.00;;;;;;;;;;5024864;28;20120;-61
2023/12/18 12:50:58;;;;;;;15.90;14.60;;;;;;;;;;5045995;28;20049;-61
2023/12/18 12:53:24;;;;;;;17.45;15.85;;;;;;;;;;5026508;28;20766;-61
2023/12/18 12:55:50;;;;;;;17.52;16.13;;;;;;;;;;5028912;28;20799;-60
2023/12/18 12:58:15;;;;;;;18.48;16.60;;;;;;;;;;5029073;28;20175;-63
2023/12/18 13:00:41;;;;;;;16.70;15.30;;;;;;;;;;5028633;28;20087;-63
2023/12/18 13:03:08;;;;;;;16.13;14.73;;;;;;;;;;5030621;28;20033;-63
2023/12/18 13:05:34;;;;;;;19.67;17.02;;;;;;;;;;5029321;28;20867;-61
2023/12/18 13:07:59;;;;;;;18.02;16.00;;;;;;;;;;5027454;28;20490;-60
2023/12/18 13:10:26;;;;;;;16.85;15.32;;;;;;;;;;5019322;28;20041;-61
2023/12/18 13:12:53;;;;;;;17.48;15.88;;;;;;;;;;5019900;28;20037;-62
2023/12/18 13:15:19;;;;;;;16.35;14.90;;;;;;;;;;5016781;28;20098;-60
2023/12/18 13:17:45;;;;;;;15.50;14.27;;;;;;;;;;5013351;28;20051;-63
2023/12/18 13:20:11;;;;;;;15.65;14.18;;;;;;;;;;5017504;28;20056;-63
2023/12/18 13:22:36;;;;;;;15.18;13.98;;;;;;;;;;5015530;28;20029;-62
2023/12/18 13:25:02;;;;;;;15.23;14.02;;;;;;;;;;5016575;28;20081;-63
2023/12/18 13:27:27;;;;;;;16.00;14.63;;;;;;;;;;5014345;28;20483;-64
2023/12/18 13:29:53;;;;;;;15.30;14.00;;;;;;;;;;5015664;28;20067;-61
2023/12/18 13:32:20;;;;;;;15.35;14.15;;;;;;;;;;5015963;28;20310;-63
2023/12/18 13:34:46;;;;;;;14.70;13.50;;;;;;;;;;5012882;28;20418;-63
2023/12/18 13:37:13;;;;;;;13.63;12.55;;;;;;;;;;5014962;28;20761;-64
2023/12/18 13:39:39;;;;;;;13.75;12.55;;;;;;;;;;5012288;28;20037;-62
2023/12/18 13:42:05;;;;;;;17.40;14.35;;;;;;;;;;5016925;28;20037;-63
2023/12/18 13:44:31;;;;;;;12.55;11.63;;;;;;;;;;5013090;28;20037;-63
2023/12/18 13:46:58;;;;;;;17.33;15.52;;;;;;;;;;5015797;28;20034;-62
2023/12/18 13:49:24;;;;;;;15.68;14.48;;;;;;;;;;5009588;28;20029;-62
2023/12/18 13:51:49;;;;;;;14.32;13.18;;;;;;;;;;5017496;28;20036;-62
2023/12/18 13:54:15;;;;;;;13.88;12.77;;;;;;;;;;5014095;28;20193;-62
2023/12/18 13:56:42;;;;;;;13.48;12.48;;;;;;;;;;5012948;28;20592;-62
2023/12/18 13:59:08;;;;;;;15.02;13.65;;;;;;;;;;5014835;28;20492;-63
2023/12/18 14:01:34;;;;;;;14.93;13.70;;;;;;;;;;5015552;28;20040;-61
2023/12/18 14:04:00;;;;;;;14.00;13.00;;;;;;;;;;5017279;28;20049;-62
2023/12/18 14:06:26;;;;;;;14.18;13.05;;;;;;;;;;5017463;28;20052;-63
2023/12/18 14:08:51;;;;;;;14.40;13.13;;;;;;;;;;5012686;28;20454;-62
2023/12/18 14:11:17;;;;;;;15.35;14.15;;;;;;;;;;5016578;28;20044;-61
2023/12/18 14:13:43;;;;;;;15.63;14.18;;;;;;;;;;5013423;28;20890;-63
2023/12/18 14:16:09;;;;;;;15.45;14.02;;;;;;;;;;5011585;28;20060;-63
2023/12/18 14:18:34;;;;;;;14.65;13.20;;;;;;;;;;5018634;28;20037;-62
2023/12/18 14:21:00;;;;;;;14.88;13.57;;;;;;;;;;5013249;28;20035;-61